Amador Station, California
Current Conditions -  °F | °C
As of 6:35 AM on Monday 20 Oct 2014 (Local Time) from KPVF Reporting Station
Overcast Overcast  
Wind Chill: 13°   Ceiling: 4300
Heat Index: 13°   Visibility: 10mi
Dew Point:   Wind: 0mph
Humidity: 67%   Direction: NA
Pressure: 29.96"   Gusts: NA
Location:  38.5644°N, 120.32°W
Report Text: KPVF 201335Z AUTO 00000KT 10SM OVC043 13/07 A2996 RMK AO1
Loading
Personal Weather Stations






























Interactive Weather Map
Tropical Storm Tracking
New forecast layout! Learn more

10-Day Weather Forecast

Advertisements
Track Severe Weather on mobile